sensor_id;sensor_type;location;lat;lon;timestamp;temperature;humidity
37410;DHT22;23275;48.914;12.566;2023-06-05T00:00:59;16.50;85.60
37410;DHT22;23275;48.914;12.566;2023-06-05T00:03:25;16.50;87.70
37410;DHT22;23275;48.914;12.566;2023-06-05T00:05:52;16.50;87.20
37410;DHT22;23275;48.914;12.566;2023-06-05T00:08:18;16.40;89.20
37410;DHT22;23275;48.914;12.566;2023-06-05T00:10:43;16.30;88.00
37410;DHT22;23275;48.914;12.566;2023-06-05T00:13:09;16.30;89.00
37410;DHT22;23275;48.914;12.566;2023-06-05T00:15:34;16.20;91.00
37410;DHT22;23275;48.914;12.566;2023-06-05T00:18:02;16.10;90.70
37410;DHT22;23275;48.914;12.566;2023-06-05T00:20:29;16.10;91.20
37410;DHT22;23275;48.914;12.566;2023-06-05T00:22:55;16.10;92.20
37410;DHT22;23275;48.914;12.566;2023-06-05T00:25:21;16.00;93.00
37410;DHT22;23275;48.914;12.566;2023-06-05T00:27:47;16.00;94.30
37410;DHT22;23275;48.914;12.566;2023-06-05T00:30:13;16.00;96.00
37410;DHT22;23275;48.914;12.566;2023-06-05T00:32:39;16.00;96.00
37410;DHT22;23275;48.914;12.566;2023-06-05T00:35:06;16.00;96.30
37410;DHT22;23275;48.914;12.566;2023-06-05T00:37:31;16.00;96.10
37410;DHT22;23275;48.914;12.566;2023-06-05T00:39:59;16.00;96.50
37410;DHT22;23275;48.914;12.566;2023-06-05T00:42:25;16.00;96.30
37410;DHT22;23275;48.914;12.566;2023-06-05T00:44:52;16.00;96.90
37410;DHT22;23275;48.914;12.566;2023-06-05T00:47:17;16.00;96.70
37410;DHT22;23275;48.914;12.566;2023-06-05T00:49:43;16.00;96.90
37410;DHT22;23275;48.914;12.566;2023-06-05T00:52:09;16.00;96.50
37410;DHT22;23275;48.914;12.566;2023-06-05T00:54:35;16.00;96.20
37410;DHT22;23275;48.914;12.566;2023-06-05T00:57:01;16.00;96.10
37410;DHT22;23275;48.914;12.566;2023-06-05T00:59:27;16.00;96.50
37410;DHT22;23275;48.914;12.566;2023-06-05T01:01:54;15.90;96.40
37410;DHT22;23275;48.914;12.566;2023-06-05T01:04:21;15.90;94.80
37410;DHT22;23275;48.914;12.566;2023-06-05T01:06:49;15.80;95.10
37410;DHT22;23275;48.914;12.566;2023-06-05T01:09:17;15.80;95.00
37410;DHT22;23275;48.914;12.566;2023-06-05T01:14:28;15.70;95.10
37410;DHT22;23275;48.914;12.566;2023-06-05T01:16:56;15.70;95.10
37410;DHT22;23275;48.914;12.566;2023-06-05T01:19:26;15.70;94.80
37410;DHT22;23275;48.914;12.566;2023-06-05T01:22:00;15.70;94.20
37410;DHT22;23275;48.914;12.566;2023-06-05T01:24:26;15.70;93.70
37410;DHT22;23275;48.914;12.566;2023-06-05T01:32:28;15.60;94.60
37410;DHT22;23275;48.914;12.566;2023-06-05T01:34:57;15.60;94.60
37410;DHT22;23275;48.914;12.566;2023-06-05T01:37:25;15.70;95.60
37410;DHT22;23275;48.914;12.566;2023-06-05T01:39:53;15.60;97.70
37410;DHT22;23275;48.914;12.566;2023-06-05T01:42:20;15.60;97.40
37410;DHT22;23275;48.914;12.566;2023-06-05T01:44:47;15.50;99.00
37410;DHT22;23275;48.914;12.566;2023-06-05T01:47:14;15.50;99.10
37410;DHT22;23275;48.914;12.566;2023-06-05T01:49:39;15.40;99.90
37410;DHT22;23275;48.914;12.566;2023-06-05T01:52:05;15.40;99.90
37410;DHT22;23275;48.914;12.566;2023-06-05T01:54:31;15.30;99.90
37410;DHT22;23275;48.914;12.566;2023-06-05T01:56:59;15.30;99.90
37410;DHT22;23275;48.914;12.566;2023-06-05T01:59:25;15.20;99.90
37410;DHT22;23275;48.914;12.566;2023-06-05T02:01:51;15.10;99.90
37410;DHT22;23275;48.914;12.566;2023-06-05T02:04:16;15.00;99.90
37410;DHT22;23275;48.914;12.566;2023-06-05T02:06:44;15.00;99.90
37410;DHT22;23275;48.914;12.566;2023-06-05T02:09:10;15.00;99.90
37410;DHT22;23275;48.914;12.566;2023-06-05T02:11:36;14.90;99.90
37410;DHT22;23275;48.914;12.566;2023-06-05T02:14:06;14.80;99.90
37410;DHT22;23275;48.914;12.566;2023-06-05T02:16:39;14.80;99.90
37410;DHT22;23275;48.914;12.566;2023-06-05T02:19:05;14.80;99.90
37410;DHT22;23275;48.914;12.566;2023-06-05T02:21:32;14.70;99.90
37410;DHT22;23275;48.914;12.566;2023-06-05T02:23:59;14.70;99.90
37410;DHT22;23275;48.914;12.566;2023-06-05T02:26:25;14.70;99.90
37410;DHT22;23275;48.914;12.566;2023-06-05T02:28:51;14.60;99.90
37410;DHT22;23275;48.914;12.566;2023-06-05T02:31:20;14.60;99.90
37410;DHT22;23275;48.914;12.566;2023-06-05T02:33:50;14.60;99.90
37410;DHT22;23275;48.914;12.566;2023-06-05T02:36:16;14.60;99.90
37410;DHT22;23275;48.914;12.566;2023-06-05T02:38:42;14.60;99.90
37410;DHT22;23275;48.914;12.566;2023-06-05T02:41:08;14.50;99.90
37410;DHT22;23275;48.914;12.566;2023-06-05T02:43:34;14.50;99.90
37410;DHT22;23275;48.914;12.566;2023-06-05T02:46:00;14.40;99.90
37410;DHT22;23275;48.914;12.566;2023-06-05T02:48:25;14.30;99.90
37410;DHT22;23275;48.914;12.566;2023-06-05T02:50:51;14.30;99.90
37410;DHT22;23275;48.914;12.566;2023-06-05T02:53:16;14.10;99.90
37410;DHT22;23275;48.914;12.566;2023-06-05T02:55:42;14.10;99.90
37410;DHT22;23275;48.914;12.566;2023-06-05T02:58:09;14.10;99.90
37410;DHT22;23275;48.914;12.566;2023-06-05T03:00:38;14.10;99.90
37410;DHT22;23275;48.914;12.566;2023-06-05T03:03:04;14.20;99.90
37410;DHT22;23275;48.914;12.566;2023-06-05T03:05:32;14.20;99.90
37410;DHT22;23275;48.914;12.566;2023-06-05T03:07:59;14.20;99.90
37410;DHT22;23275;48.914;12.566;2023-06-05T03:10:26;14.30;99.90
37410;DHT22;23275;48.914;12.566;2023-06-05T03:12:53;14.30;99.90
37410;DHT22;23275;48.914;12.566;2023-06-05T03:15:18;14.30;99.90
37410;DHT22;23275;48.914;12.566;2023-06-05T03:17:44;14.30;99.90
37410;DHT22;23275;48.914;12.566;2023-06-05T03:20:11;14.40;99.90
37410;DHT22;23275;48.914;12.566;2023-06-05T03:22:37;14.40;99.90
37410;DHT22;23275;48.914;12.566;2023-06-05T03:25:04;14.40;99.90
37410;DHT22;23275;48.914;12.566;2023-06-05T03:27:29;14.50;99.90
37410;DHT22;23275;48.914;12.566;2023-06-05T03:29:55;14.50;99.90
37410;DHT22;23275;48.914;12.566;2023-06-05T03:32:24;14.50;99.90
37410;DHT22;23275;48.914;12.566;2023-06-05T03:34:49;14.40;99.90
37410;DHT22;23275;48.914;12.566;2023-06-05T03:37:15;14.20;99.90
37410;DHT22;23275;48.914;12.566;2023-06-05T03:39:41;14.00;99.90
37410;DHT22;23275;48.914;12.566;2023-06-05T03:42:07;14.00;99.90
37410;DHT22;23275;48.914;12.566;2023-06-05T03:44:34;14.00;99.90
37410;DHT22;23275;48.914;12.566;2023-06-05T03:47:00;14.00;99.90
37410;DHT22;23275;48.914;12.566;2023-06-05T03:49:26;14.10;99.90
37410;DHT22;23275;48.914;12.566;2023-06-05T03:51:54;14.20;99.90
37410;DHT22;23275;48.914;12.566;2023-06-05T03:54:27;14.20;99.90
37410;DHT22;23275;48.914;12.566;2023-06-05T03:56:54;14.30;99.90
37410;DHT22;23275;48.914;12.566;2023-06-05T03:59:21;14.40;99.90
37410;DHT22;23275;48.914;12.566;2023-06-05T04:01:50;14.50;99.90
37410;DHT22;23275;48.914;12.566;2023-06-05T04:04:15;14.60;99.90
37410;DHT22;23275;48.914;12.566;2023-06-05T04:06:41;14.60;99.90
37410;DHT22;23275;48.914;12.566;2023-06-05T04:09:07;14.70;99.90
37410;DHT22;23275;48.914;12.566;2023-06-05T04:11:42;14.80;99.90
37410;DHT22;23275;48.914;12.566;2023-06-05T04:14:09;14.80;99.90
37410;DHT22;23275;48.914;12.566;2023-06-05T04:16:36;14.90;99.90
37410;DHT22;23275;48.914;12.566;2023-06-05T04:19:05;15.00;99.90
37410;DHT22;23275;48.914;12.566;2023-06-05T04:21:32;15.00;99.90
37410;DHT22;23275;48.914;12.566;2023-06-05T04:23:59;15.10;99.90
37410;DHT22;23275;48.914;12.566;2023-06-05T04:26:24;15.10;99.90
37410;DHT22;23275;48.914;12.566;2023-06-05T04:28:51;15.20;99.90
37410;DHT22;23275;48.914;12.566;2023-06-05T04:31:17;15.30;99.90
37410;DHT22;23275;48.914;12.566;2023-06-05T04:33:43;15.40;99.90
37410;DHT22;23275;48.914;12.566;2023-06-05T04:36:09;15.50;99.90
37410;DHT22;23275;48.914;12.566;2023-06-05T04:38:34;15.60;99.90
37410;DHT22;23275;48.914;12.566;2023-06-05T04:41:00;15.70;99.90
37410;DHT22;23275;48.914;12.566;2023-06-05T04:43:25;15.70;99.90
37410;DHT22;23275;48.914;12.566;2023-06-05T04:45:51;15.70;99.90
37410;DHT22;23275;48.914;12.566;2023-06-05T04:48:17;15.80;99.90
37410;DHT22;23275;48.914;12.566;2023-06-05T04:50:42;15.90;99.90
37410;DHT22;23275;48.914;12.566;2023-06-05T04:53:08;15.90;99.90
37410;DHT22;23275;48.914;12.566;2023-06-05T04:55:34;16.00;99.90
37410;DHT22;23275;48.914;12.566;2023-06-05T04:57:59;16.00;99.90
37410;DHT22;23275;48.914;12.566;2023-06-05T05:00:28;16.10;99.90
37410;DHT22;23275;48.914;12.566;2023-06-05T05:02:54;16.10;99.90
37410;DHT22;23275;48.914;12.566;2023-06-05T05:05:20;16.10;99.90
37410;DHT22;23275;48.914;12.566;2023-06-05T05:07:45;16.20;99.90
37410;DHT22;23275;48.914;12.566;2023-06-05T05:10:11;16.20;99.90
37410;DHT22;23275;48.914;12.566;2023-06-05T05:12:37;16.30;99.90
37410;DHT22;23275;48.914;12.566;2023-06-05T05:15:03;16.40;99.90
37410;DHT22;23275;48.914;12.566;2023-06-05T05:17:30;16.50;99.90
37410;DHT22;23275;48.914;12.566;2023-06-05T05:19:55;16.60;99.90
37410;DHT22;23275;48.914;12.566;2023-06-05T05:22:21;16.60;99.90
37410;DHT22;23275;48.914;12.566;2023-06-05T05:24:47;16.60;99.90
37410;DHT22;23275;48.914;12.566;2023-06-05T05:27:12;16.60;99.90
37410;DHT22;23275;48.914;12.566;2023-06-05T05:29:38;16.60;99.90
37410;DHT22;23275;48.914;12.566;2023-06-05T05:32:03;16.70;99.90
37410;DHT22;23275;48.914;12.566;2023-06-05T05:34:30;16.70;99.90
37410;DHT22;23275;48.914;12.566;2023-06-05T05:36:56;16.80;99.90
37410;DHT22;23275;48.914;12.566;2023-06-05T05:39:22;16.90;99.90
37410;DHT22;23275;48.914;12.566;2023-06-05T05:41:47;16.90;99.90
37410;DHT22;23275;48.914;12.566;2023-06-05T05:44:13;16.90;99.90
37410;DHT22;23275;48.914;12.566;2023-06-05T05:46:38;16.90;99.90
37410;DHT22;23275;48.914;12.566;2023-06-05T05:49:04;17.00;99.90
37410;DHT22;23275;48.914;12.566;2023-06-05T05:51:30;17.10;99.90
37410;DHT22;23275;48.914;12.566;2023-06-05T05:53:55;17.10;99.90
37410;DHT22;23275;48.914;12.566;2023-06-05T05:56:21;17.20;99.90
37410;DHT22;23275;48.914;12.566;2023-06-05T05:58:47;17.20;99.90
37410;DHT22;23275;48.914;12.566;2023-06-05T06:01:13;17.30;99.90
37410;DHT22;23275;48.914;12.566;2023-06-05T06:03:38;17.20;99.90
37410;DHT22;23275;48.914;12.566;2023-06-05T06:06:04;17.20;99.90
37410;DHT22;23275;48.914;12.566;2023-06-05T06:08:35;17.10;99.90
37410;DHT22;23275;48.914;12.566;2023-06-05T06:11:01;17.10;99.90
37410;DHT22;23275;48.914;12.566;2023-06-05T06:13:29;17.10;99.90
37410;DHT22;23275;48.914;12.566;2023-06-05T06:15:54;17.10;99.90
37410;DHT22;23275;48.914;12.566;2023-06-05T06:18:20;17.00;99.90
37410;DHT22;23275;48.914;12.566;2023-06-05T06:20:46;17.00;99.90
37410;DHT22;23275;48.914;12.566;2023-06-05T06:23:12;17.10;99.90
37410;DHT22;23275;48.914;12.566;2023-06-05T06:25:38;17.10;99.90
37410;DHT22;23275;48.914;12.566;2023-06-05T06:28:04;17.10;99.90
37410;DHT22;23275;48.914;12.566;2023-06-05T06:30:31;17.10;99.90
37410;DHT22;23275;48.914;12.566;2023-06-05T06:32:57;17.10;99.90
37410;DHT22;23275;48.914;12.566;2023-06-05T06:35:25;17.10;99.90
37410;DHT22;23275;48.914;12.566;2023-06-05T06:37:55;17.10;99.90
37410;DHT22;23275;48.914;12.566;2023-06-05T06:40:21;17.20;99.90
37410;DHT22;23275;48.914;12.566;2023-06-05T06:42:47;17.20;99.90
37410;DHT22;23275;48.914;12.566;2023-06-05T06:45:13;17.20;99.90
37410;DHT22;23275;48.914;12.566;2023-06-05T06:47:39;17.20;99.90
37410;DHT22;23275;48.914;12.566;2023-06-05T06:50:06;17.10;99.90
37410;DHT22;23275;48.914;12.566;2023-06-05T06:52:32;17.10;99.90
37410;DHT22;23275;48.914;12.566;2023-06-05T06:54:58;17.10;99.90
37410;DHT22;23275;48.914;12.566;2023-06-05T06:57:23;17.10;99.90
37410;DHT22;23275;48.914;12.566;2023-06-05T06:59:49;17.30;99.90
37410;DHT22;23275;48.914;12.566;2023-06-05T07:02:18;17.40;99.90
37410;DHT22;23275;48.914;12.566;2023-06-05T07:04:45;17.60;99.90
37410;DHT22;23275;48.914;12.566;2023-06-05T07:07:12;17.90;99.90
37410;DHT22;23275;48.914;12.566;2023-06-05T07:09:40;18.20;99.90
37410;DHT22;23275;48.914;12.566;2023-06-05T07:12:07;18.60;99.90
37410;DHT22;23275;48.914;12.566;2023-06-05T07:14:33;19.00;99.90
37410;DHT22;23275;48.914;12.566;2023-06-05T07:17:02;19.60;99.90
37410;DHT22;23275;48.914;12.566;2023-06-05T07:19:29;20.00;99.90
37410;DHT22;23275;48.914;12.566;2023-06-05T07:21:55;20.20;99.90
37410;DHT22;23275;48.914;12.566;2023-06-05T07:24:22;20.30;99.90
37410;DHT22;23275;48.914;12.566;2023-06-05T07:26:55;20.50;99.90
37410;DHT22;23275;48.914;12.566;2023-06-05T07:29:21;20.90;99.90
37410;DHT22;23275;48.914;12.566;2023-06-05T07:31:49;21.30;99.90
37410;DHT22;23275;48.914;12.566;2023-06-05T07:34:15;21.50;99.90
37410;DHT22;23275;48.914;12.566;2023-06-05T07:36:41;21.70;99.90
37410;DHT22;23275;48.914;12.566;2023-06-05T07:39:06;21.80;99.90
37410;DHT22;23275;48.914;12.566;2023-06-05T07:41:32;22.00;99.90
37410;DHT22;23275;48.914;12.566;2023-06-05T07:43:58;22.10;99.90
37410;DHT22;23275;48.914;12.566;2023-06-05T07:46:23;22.20;99.90
37410;DHT22;23275;48.914;12.566;2023-06-05T07:48:49;22.30;99.90
37410;DHT22;23275;48.914;12.566;2023-06-05T07:51:14;22.60;99.90
37410;DHT22;23275;48.914;12.566;2023-06-05T07:53:43;22.90;99.90
37410;DHT22;23275;48.914;12.566;2023-06-05T07:56:08;23.20;99.90
37410;DHT22;23275;48.914;12.566;2023-06-05T07:58:34;23.30;99.90
37410;DHT22;23275;48.914;12.566;2023-06-05T08:01:00;23.20;99.90
37410;DHT22;23275;48.914;12.566;2023-06-05T08:03:28;23.10;99.90
37410;DHT22;23275;48.914;12.566;2023-06-05T08:05:53;23.10;99.90
37410;DHT22;23275;48.914;12.566;2023-06-05T08:08:19;23.00;99.90
37410;DHT22;23275;48.914;12.566;2023-06-05T08:10:44;22.80;99.90
37410;DHT22;23275;48.914;12.566;2023-06-05T08:13:10;22.70;99.90
37410;DHT22;23275;48.914;12.566;2023-06-05T08:15:36;22.60;99.90
37410;DHT22;23275;48.914;12.566;2023-06-05T08:18:02;22.40;99.90
37410;DHT22;23275;48.914;12.566;2023-06-05T08:20:28;22.40;99.90
37410;DHT22;23275;48.914;12.566;2023-06-05T08:22:57;22.60;99.90
37410;DHT22;23275;48.914;12.566;2023-06-05T08:25:24;22.90;99.90
37410;DHT22;23275;48.914;12.566;2023-06-05T08:27:49;23.10;99.90
37410;DHT22;23275;48.914;12.566;2023-06-05T08:30:16;23.20;99.90
37410;DHT22;23275;48.914;12.566;2023-06-05T08:32:41;23.30;99.90
37410;DHT22;23275;48.914;12.566;2023-06-05T08:35:09;23.30;99.90
37410;DHT22;23275;48.914;12.566;2023-06-05T08:37:35;23.30;99.90
37410;DHT22;23275;48.914;12.566;2023-06-05T08:40:02;23.40;99.90
37410;DHT22;23275;48.914;12.566;2023-06-05T08:42:31;23.30;99.30
37410;DHT22;23275;48.914;12.566;2023-06-05T08:44:57;23.50;99.90
37410;DHT22;23275;48.914;12.566;2023-06-05T08:47:28;23.80;99.90
37410;DHT22;23275;48.914;12.566;2023-06-05T08:49:56;23.90;99.90
37410;DHT22;23275;48.914;12.566;2023-06-05T08:52:25;24.20;99.90
37410;DHT22;23275;48.914;12.566;2023-06-05T08:54:52;24.20;99.90
37410;DHT22;23275;48.914;12.566;2023-06-05T08:57:18;24.30;99.30
37410;DHT22;23275;48.914;12.566;2023-06-05T08:59:45;24.30;99.90
37410;DHT22;23275;48.914;12.566;2023-06-05T09:02:11;24.30;99.90
37410;DHT22;23275;48.914;12.566;2023-06-05T09:04:38;24.50;99.90
37410;DHT22;23275;48.914;12.566;2023-06-05T09:07:04;24.40;99.90
37410;DHT22;23275;48.914;12.566;2023-06-05T09:09:31;24.40;99.90
37410;DHT22;23275;48.914;12.566;2023-06-05T09:12:06;24.30;99.50
37410;DHT22;23275;48.914;12.566;2023-06-05T09:14:32;24.10;99.50
37410;DHT22;23275;48.914;12.566;2023-06-05T09:17:02;24.40;99.50
37410;DHT22;23275;48.914;12.566;2023-06-05T09:19:38;24.90;98.20
37410;DHT22;23275;48.914;12.566;2023-06-05T09:22:07;25.30;98.40
37410;DHT22;23275;48.914;12.566;2023-06-05T09:24:33;25.30;96.80
37410;DHT22;23275;48.914;12.566;2023-06-05T09:27:00;25.30;97.70
37410;DHT22;23275;48.914;12.566;2023-06-05T09:29:34;25.50;98.50
37410;DHT22;23275;48.914;12.566;2023-06-05T09:32:19;25.30;97.40
37410;DHT22;23275;48.914;12.566;2023-06-05T09:34:54;25.50;97.90
37410;DHT22;23275;48.914;12.566;2023-06-05T09:37:33;25.80;94.80
37410;DHT22;23275;48.914;12.566;2023-06-05T09:40:00;26.20;99.30
37410;DHT22;23275;48.914;12.566;2023-06-05T09:42:33;26.50;96.70
37410;DHT22;23275;48.914;12.566;2023-06-05T09:44:59;26.40;95.60
37410;DHT22;23275;48.914;12.566;2023-06-05T09:47:27;25.80;95.20
37410;DHT22;23275;48.914;12.566;2023-06-05T09:49:53;25.70;96.60
37410;DHT22;23275;48.914;12.566;2023-06-05T09:52:20;26.10;96.70
37410;DHT22;23275;48.914;12.566;2023-06-05T09:54:46;26.30;93.80
37410;DHT22;23275;48.914;12.566;2023-06-05T09:57:15;26.20;96.00
37410;DHT22;23275;48.914;12.566;2023-06-05T09:59:49;26.40;95.10
37410;DHT22;23275;48.914;12.566;2023-06-05T10:02:17;26.40;95.90
37410;DHT22;23275;48.914;12.566;2023-06-05T10:04:49;26.50;93.80
37410;DHT22;23275;48.914;12.566;2023-06-05T10:07:17;27.00;93.80
37410;DHT22;23275;48.914;12.566;2023-06-05T10:09:44;26.80;92.90
37410;DHT22;23275;48.914;12.566;2023-06-05T10:12:13;26.90;93.40
37410;DHT22;23275;48.914;12.566;2023-06-05T10:14:41;26.80;92.30
37410;DHT22;23275;48.914;12.566;2023-06-05T10:17:08;26.80;93.90
37410;DHT22;23275;48.914;12.566;2023-06-05T10:19:34;27.10;94.10
37410;DHT22;23275;48.914;12.566;2023-06-05T10:22:01;26.90;91.80
37410;DHT22;23275;48.914;12.566;2023-06-05T10:24:31;26.30;91.50
37410;DHT22;23275;48.914;12.566;2023-06-05T10:34:56;24.70;98.40
37410;DHT22;23275;48.914;12.566;2023-06-05T10:40:11;25.00;98.80
37410;DHT22;23275;48.914;12.566;2023-06-05T10:42:37;24.80;99.90
37410;DHT22;23275;48.914;12.566;2023-06-05T10:45:03;23.80;99.90
37410;DHT22;23275;48.914;12.566;2023-06-05T10:52:45;22.80;99.90
37410;DHT22;23275;48.914;12.566;2023-06-05T10:55:11;22.80;99.90
37410;DHT22;23275;48.914;12.566;2023-06-05T11:00:29;23.10;99.90
37410;DHT22;23275;48.914;12.566;2023-06-05T11:02:55;23.30;99.90
37410;DHT22;23275;48.914;12.566;2023-06-05T11:05:21;23.70;99.90
37410;DHT22;23275;48.914;12.566;2023-06-05T11:07:47;24.10;99.90
37410;DHT22;23275;48.914;12.566;2023-06-05T11:10:19;24.60;99.90
37410;DHT22;23275;48.914;12.566;2023-06-05T11:20:51;25.90;99.90
37410;DHT22;23275;48.914;12.566;2023-06-05T11:23:17;25.80;99.90
37410;DHT22;23275;48.914;12.566;2023-06-05T11:25:42;25.50;99.90
37410;DHT22;23275;48.914;12.566;2023-06-05T11:28:08;25.40;99.90
37410;DHT22;23275;48.914;12.566;2023-06-05T11:30:44;25.30;99.90
37410;DHT22;23275;48.914;12.566;2023-06-05T11:33:11;25.10;99.90
37410;DHT22;23275;48.914;12.566;2023-06-05T11:35:43;25.20;99.90
37410;DHT22;23275;48.914;12.566;2023-06-05T11:38:10;25.30;99.90
37410;DHT22;23275;48.914;12.566;2023-06-05T11:40:37;25.20;99.90
37410;DHT22;23275;48.914;12.566;2023-06-05T11:43:07;25.10;99.90
37410;DHT22;23275;48.914;12.566;2023-06-05T11:45:34;25.10;99.90
37410;DHT22;23275;48.914;12.566;2023-06-05T11:48:19;25.00;99.90
37410;DHT22;23275;48.914;12.566;2023-06-05T11:51:02;24.90;99.90
37410;DHT22;23275;48.914;12.566;2023-06-05T11:53:30;24.70;99.90
37410;DHT22;23275;48.914;12.566;2023-06-05T11:55:56;24.30;99.90
37410;DHT22;23275;48.914;12.566;2023-06-05T11:58:38;23.80;99.90
37410;DHT22;23275;48.914;12.566;2023-06-05T12:01:06;23.30;99.90
37410;DHT22;23275;48.914;12.566;2023-06-05T12:03:33;23.00;99.90
37410;DHT22;23275;48.914;12.566;2023-06-05T12:06:01;22.70;99.90
37410;DHT22;23275;48.914;12.566;2023-06-05T12:08:28;22.50;99.90
37410;DHT22;23275;48.914;12.566;2023-06-05T12:10:57;22.50;99.90
37410;DHT22;23275;48.914;12.566;2023-06-05T12:13:44;22.40;99.90
37410;DHT22;23275;48.914;12.566;2023-06-05T12:16:08;22.20;99.90
37410;DHT22;23275;48.914;12.566;2023-06-05T12:18:34;21.80;99.90
37410;DHT22;23275;48.914;12.566;2023-06-05T12:21:00;21.50;99.90
37410;DHT22;23275;48.914;12.566;2023-06-05T12:23:27;21.40;99.90
37410;DHT22;23275;48.914;12.566;2023-06-05T12:26:03;21.20;99.90
37410;DHT22;23275;48.914;12.566;2023-06-05T12:28:30;21.10;99.90
37410;DHT22;23275;48.914;12.566;2023-06-05T12:30:56;21.30;99.90
37410;DHT22;23275;48.914;12.566;2023-06-05T12:33:22;21.40;99.90
37410;DHT22;23275;48.914;12.566;2023-06-05T12:36:05;21.30;99.90
37410;DHT22;23275;48.914;12.566;2023-06-05T12:38:37;21.30;99.90
37410;DHT22;23275;48.914;12.566;2023-06-05T12:41:03;21.40;99.90
37410;DHT22;23275;48.914;12.566;2023-06-05T12:43:31;21.70;99.90
37410;DHT22;23275;48.914;12.566;2023-06-05T12:45:57;21.80;99.90
37410;DHT22;23275;48.914;12.566;2023-06-05T12:48:22;22.00;99.90
37410;DHT22;23275;48.914;12.566;2023-06-05T12:50:49;22.10;99.90
37410;DHT22;23275;48.914;12.566;2023-06-05T12:53:15;22.20;99.90
37410;DHT22;23275;48.914;12.566;2023-06-05T12:55:40;22.00;99.90
37410;DHT22;23275;48.914;12.566;2023-06-05T12:58:06;21.70;99.90
37410;DHT22;23275;48.914;12.566;2023-06-05T13:00:32;21.60;99.90
37410;DHT22;23275;48.914;12.566;2023-06-05T13:02:57;21.50;99.90
37410;DHT22;23275;48.914;12.566;2023-06-05T13:05:23;21.60;99.90
37410;DHT22;23275;48.914;12.566;2023-06-05T13:07:49;21.70;99.90
37410;DHT22;23275;48.914;12.566;2023-06-05T13:10:16;21.70;99.90
37410;DHT22;23275;48.914;12.566;2023-06-05T13:12:43;21.80;99.90
37410;DHT22;23275;48.914;12.566;2023-06-05T13:15:09;22.00;99.90
37410;DHT22;23275;48.914;12.566;2023-06-05T13:17:37;21.80;99.90
37410;DHT22;23275;48.914;12.566;2023-06-05T13:20:04;21.80;99.90
37410;DHT22;23275;48.914;12.566;2023-06-05T13:22:37;22.00;99.90
37410;DHT22;23275;48.914;12.566;2023-06-05T13:25:03;22.00;99.90
37410;DHT22;23275;48.914;12.566;2023-06-05T13:27:29;22.00;99.90
37410;DHT22;23275;48.914;12.566;2023-06-05T13:29:54;21.90;99.90
37410;DHT22;23275;48.914;12.566;2023-06-05T13:32:20;21.80;99.90
37410;DHT22;23275;48.914;12.566;2023-06-05T13:34:46;21.80;99.90
37410;DHT22;23275;48.914;12.566;2023-06-05T13:37:12;21.80;99.90
37410;DHT22;23275;48.914;12.566;2023-06-05T13:39:37;21.80;99.90
37410;DHT22;23275;48.914;12.566;2023-06-05T13:42:03;21.90;99.90
37410;DHT22;23275;48.914;12.566;2023-06-05T13:44:32;21.80;99.90
37410;DHT22;23275;48.914;12.566;2023-06-05T13:46:58;21.80;99.90
37410;DHT22;23275;48.914;12.566;2023-06-05T13:49:23;21.80;99.90
37410;DHT22;23275;48.914;12.566;2023-06-05T13:51:49;21.80;99.90
37410;DHT22;23275;48.914;12.566;2023-06-05T13:54:14;21.60;99.90
37410;DHT22;23275;48.914;12.566;2023-06-05T13:56:40;21.50;99.90
37410;DHT22;23275;48.914;12.566;2023-06-05T13:59:05;21.50;99.90
37410;DHT22;23275;48.914;12.566;2023-06-05T14:01:31;21.40;99.90
37410;DHT22;23275;48.914;12.566;2023-06-05T14:03:57;21.50;99.90
37410;DHT22;23275;48.914;12.566;2023-06-05T14:06:22;21.70;99.90
37410;DHT22;23275;48.914;12.566;2023-06-05T14:08:48;21.70;99.90
37410;DHT22;23275;48.914;12.566;2023-06-05T14:11:14;21.70;99.90
37410;DHT22;23275;48.914;12.566;2023-06-05T14:13:40;21.80;99.90
37410;DHT22;23275;48.914;12.566;2023-06-05T14:16:07;21.80;99.90
37410;DHT22;23275;48.914;12.566;2023-06-05T14:18:35;21.90;99.90
37410;DHT22;23275;48.914;12.566;2023-06-05T14:21:01;21.90;99.90
37410;DHT22;23275;48.914;12.566;2023-06-05T14:23:27;22.00;99.90
37410;DHT22;23275;48.914;12.566;2023-06-05T14:25:52;21.90;99.90
37410;DHT22;23275;48.914;12.566;2023-06-05T14:28:18;21.80;99.90
37410;DHT22;23275;48.914;12.566;2023-06-05T14:30:48;21.70;99.90
37410;DHT22;23275;48.914;12.566;2023-06-05T14:33:14;21.80;99.90
37410;DHT22;23275;48.914;12.566;2023-06-05T14:35:42;21.80;99.90
37410;DHT22;23275;48.914;12.566;2023-06-05T14:38:08;21.90;99.90
37410;DHT22;23275;48.914;12.566;2023-06-05T14:40:38;21.90;99.90
37410;DHT22;23275;48.914;12.566;2023-06-05T14:43:03;22.00;99.90
37410;DHT22;23275;48.914;12.566;2023-06-05T14:45:29;22.00;99.90
37410;DHT22;23275;48.914;12.566;2023-06-05T14:47:54;21.90;99.90
37410;DHT22;23275;48.914;12.566;2023-06-05T14:50:20;22.00;99.90
37410;DHT22;23275;48.914;12.566;2023-06-05T14:52:45;22.10;99.90
37410;DHT22;23275;48.914;12.566;2023-06-05T14:55:11;22.00;99.90
37410;DHT22;23275;48.914;12.566;2023-06-05T14:57:37;22.00;99.90
37410;DHT22;23275;48.914;12.566;2023-06-05T15:00:05;21.90;99.90
37410;DHT22;23275;48.914;12.566;2023-06-05T15:02:31;21.90;99.90
37410;DHT22;23275;48.914;12.566;2023-06-05T15:04:57;21.80;99.90
37410;DHT22;23275;48.914;12.566;2023-06-05T15:07:35;21.70;99.90
37410;DHT22;23275;48.914;12.566;2023-06-05T15:10:03;21.80;99.90
37410;DHT22;23275;48.914;12.566;2023-06-05T15:12:28;21.80;99.90
37410;DHT22;23275;48.914;12.566;2023-06-05T15:14:54;22.00;99.90
37410;DHT22;23275;48.914;12.566;2023-06-05T15:17:20;21.90;99.90
37410;DHT22;23275;48.914;12.566;2023-06-05T15:19:45;21.80;99.90
37410;DHT22;23275;48.914;12.566;2023-06-05T15:22:11;21.80;99.90
37410;DHT22;23275;48.914;12.566;2023-06-05T15:24:36;21.80;99.90
37410;DHT22;23275;48.914;12.566;2023-06-05T15:27:02;21.60;99.90
37410;DHT22;23275;48.914;12.566;2023-06-05T15:29:29;21.50;99.90
37410;DHT22;23275;48.914;12.566;2023-06-05T15:31:55;21.40;99.90
37410;DHT22;23275;48.914;12.566;2023-06-05T15:34:20;21.40;99.90
37410;DHT22;23275;48.914;12.566;2023-06-05T15:36:46;21.50;99.90
37410;DHT22;23275;48.914;12.566;2023-06-05T15:39:12;21.40;99.90
37410;DHT22;23275;48.914;12.566;2023-06-05T15:41:38;21.30;99.90
37410;DHT22;23275;48.914;12.566;2023-06-05T15:44:04;21.30;99.90
37410;DHT22;23275;48.914;12.566;2023-06-05T15:46:30;21.40;99.90
37410;DHT22;23275;48.914;12.566;2023-06-05T15:48:55;21.50;99.90